• Join FlightAware (Why Join?)
  • Login
  • US Flag 
03:27AM EDT


 

Airport Tracker/Info


-or-


 

Live Flight TrackerFlight Track Log ✈ DAL10 ✈ 09-Apr-2013 ✈ KCVG - KATL

Flight Track Log - Related Links

Times and Time Zones

All times are in EDT time to prevent confusion due to time zone crossing. See the DAL10 flight status page for this flight to view local times or setup timezone preferences in your user account.

Time Position Orientation Groundspeed Altitude Reporting Facility
EDT Latitude Longitude Course Direction KTS MPH feet Rate Location/Type
07:21PM 39.0333 -84.6667 360° North 151 174 1,600  Level Cincinnati TRACON
07:22PM 39.0333 -84.6667 180° South 151 174 2,000 2,100 Climbing Cincinnati TRACON
07:23PM 38.9833 -84.6667 180° South 235 270 4,000 2,700 Climbing Cincinnati TRACON
07:24PM 38.9167 -84.6833 191° South 261 300 7,400 3,240 Climbing Cincinnati TRACON
07:24PM 38.8683 -84.7089 202° Southwest 248 285 9,700 2,280 Climbing Indianapolis Center
07:25PM 38.7994 -84.7575 209° Southwest 283 326 11,500 2,040 Climbing Indianapolis Center
07:26PM 38.7142 -84.8161 208° Southwest 343 395 13,900 2,340 Climbing Indianapolis Center
07:27PM 38.6306 -84.8983 218° Southwest 384 442 16,300 2,460 Climbing Indianapolis Center
07:28PM 38.5408 -85.0125 225° Southwest 392 451 19,000 2,400 Climbing Indianapolis Center
07:29PM 38.4614 -85.1183 226° Southwest 408 470 21,300 1,920 Climbing Indianapolis Center
07:31PM 38.3853 -85.2183 226° Southwest 417 480 23,000 1,680 Climbing Indianapolis Center
07:32PM 38.3006 -85.3283 226° Southwest 429 494 24,800 2,040 Climbing Indianapolis Center
07:33PM 38.2072 -85.4283 220° Southwest 435 501 27,300 2,400 Climbing Indianapolis Center
07:34PM 38.1069 -85.5089 212° Southwest 424 488 29,800 1,920 Climbing Indianapolis Center
07:35PM 38.0119 -85.5861 213° Southwest 406 467 31,300 1,440 Climbing Indianapolis Center
07:36PM 37.8956 -85.6822 213° Southwest 412 474 32,800 1,260 Climbing Indianapolis Center
07:37PM 37.7983 -85.7603 212° Southwest 411 473 34,000 1,020 Climbing Indianapolis Center
07:38PM 37.7014 -85.8375 212° Southwest 411 473 35,000 960 Climbing Indianapolis Center
07:39PM 37.6042 -85.9136 212° Southwest 409 471 36,000 780 Climbing Indianapolis Center
07:40PM 37.4994 -85.9950 212° Southwest 407 468 36,700 480 Climbing Indianapolis Center
07:41PM 37.4019 -86.0675 211° Southwest 404 465 37,000 120 Climbing Indianapolis Center
07:42PM 37.2978 -86.1461 211° Southwest 407 468 37,000 -240 Level Memphis Center
07:43PM 37.2006 -86.2217 212° Southwest 407 468 36,600 -660 Descending Memphis Center
07:44PM 37.1050 -86.2969 212° Southwest 412 474 35,700 -840 Descending Memphis Center
07:45PM 36.9933 -86.3233 191° South 404 465 35,000 -360 Descending Memphis Center
07:46PM 36.8747 -86.3267 181° South 420 483 35,000  Level Memphis Center
07:47PM 36.7539 -86.3328 182° South 432 497 35,000  Level Memphis Center
07:48PM 36.6353 -86.3386 182° South 437 503 35,000  Level Memphis Center
07:49PM 36.5272 -86.3442 182° South 437 503 35,000 -600 Level Memphis Center
07:50PM 36.4086 -86.3472 181° South 437 503 33,900 -1,020 Descending Memphis Center
07:51PM 36.2858 -86.3533 182° South 437 503 33,000 -480 Descending Memphis Center
07:52PM 36.1647 -86.3542 180° South 437 503 33,000  Level Memphis Center
07:53PM 36.0336 -86.3606 182° South 437 503 33,000  Level Memphis Center
07:54PM 35.9128 -86.3639 181° South 437 503 33,000  Level Memphis Center
07:56PM 35.7156 -86.3433 175° South 453 521 33,000  Level Atlanta Center
07:57PM 35.6086 -86.2583 147° Southeast 442 509 33,000  Level Atlanta Center
07:58PM 35.5058 -86.1742 146° Southeast 444 511 33,000  Level Atlanta Center
07:59PM 35.4008 -86.0897 147° Southeast 454 522 33,000  Level Atlanta Center
08:00PM 35.2936 -86.0058 147° Southeast 460 529 33,000  Level Atlanta Center
08:01PM 35.1783 -85.9117 146° Southeast 460 529 33,100 -600 Climbing Atlanta Center
08:02PM 35.0750 -85.8356 149° Southeast 449 517 31,900 -1,200 Descending Atlanta Center
08:03PM 34.9697 -85.7522 147° Southeast 449 517 30,700 -1,200 Descending Atlanta Center
08:04PM 34.8667 -85.6717 147° Southeast 449 517 29,500 -1,200 Descending Atlanta Center
08:05PM 34.7611 -85.5911 148° Southeast 449 517 28,400 -1,980 Descending Atlanta Center
08:06PM 34.6539 -85.5058 147° Southeast 449 517 25,600 -2,880 Descending Atlanta Center
08:07PM 34.5525 -85.4258 147° Southeast 449 517 22,700 -2,760 Descending Atlanta Center
08:08PM 34.4511 -85.3486 148° Southeast 444 511 20,100 -2,460 Descending Atlanta Center
08:09PM 34.3578 -85.2717 146° Southeast 428 493 17,800 -2,340 Descending Atlanta Center
08:10PM 34.2689 -85.2050 148° Southeast 393 452 15,500 -2,160 Descending Atlanta Center
08:11PM 34.1817 -85.1386 148° Southeast 380 437 13,500 -1,260 Descending Atlanta Center
08:12PM 34.1136 -85.0625 137° Southeast 349 402 13,000 -420 Descending Atlanta Center
08:13PM 34.0514 -84.9942 138° Southeast 318 366 12,700 -1,140 Descending Atlanta Center
08:14PM 33.9767 -84.9556 157° South 293 337 10,800 -1,800 Descending Atlanta Center
08:15PM 33.9017 -84.9197 158° South 293 337 9,200 -900 Descending Atlanta Center
08:16PM 33.8225 -84.9214 181° South 283 326 9,000 -360 Descending Atlanta Center
08:17PM 33.7453 -84.9083 172° South 283 326 8,500 -960 Descending Atlanta Center
08:18PM 33.6789 -84.8550 146° Southeast 276 318 7,100 -960 Descending Atlanta Center
08:19PM 33.6375 -84.7847 125° Southeast 254 292 6,600 -660 Descending Atlanta Center
08:20PM 33.6294 -84.7175 98° East 226 260 5,800 -1,200 Descending Atlanta Center
08:21PM 33.6333 -84.6167 87° East 208 239 4,100 -1,440 Descending Atlanta TRACON
08:22PM 33.6333 -84.5500 90° East 186 214 2,700 -1,140 Descending Atlanta TRACON
08:23PM 33.6333 -84.5000 90° East 142 163 1,900 -720 Descending Atlanta TRACON
08:24PM 33.6333 -84.4667 90° East 130 150 1,300 -600 Descending Atlanta TRACON
08:26PM 33.6367 -84.4279 North  Level Estimated
08:33PM 33.6367 -84.4279 North  Level Estimated